CheckWX is a tool to help pilots better visualize weather data.  It is not intended as a substitute for an official pre-flight weather briefing.

15:32:21 UTC

KLPR METAR
Lorain County Regional Airport
Lorain/Elyria, Ohio, USA
Current

39 mins ago

KLPR 211453Z AUTO 31004KT 10SM CLR 28/19 A2996 RMK AO2 SLP139 T02780189 51003
Observed
Jul-21 @ 14:53 UTC
Wind
  • 310° at 4 KTS
Visibility
10 SM
Flight Rules
VFR
Cloud Levels
  • Clear skies
Temperature
28°C / 82°F
Dewpoint
19°C / 66°F
Heat Index
29°C / 84°F
Humidity
58%
Altimeter
29.96" Hg
Pressure
1014.52 hPa
Previous

2 hours ago

KLPR 211353Z AUTO 00000KT 10SM FEW027 27/18 A2996 RMK AO2 SLP139 T02670183
Observed
Jul-21 @ 13:53 UTC
Visibility
10 SM
Flight Rules
VFR
Cloud Levels
  • Few at 2,700' AGL
Temperature
27°C / 81°F
Dewpoint
18°C / 64°F
Heat Index
28°C / 83°F
Humidity
58%
Altimeter
29.96" Hg
Pressure
1014.52 hPa
Previous

2 hours ago

KLPR 211338Z AUTO 07004KT 10SM SCT028 27/19 A2996 RMK AO2 T02670189
Observed
Jul-21 @ 13:38 UTC
Wind
  • 070° at 4 KTS
Visibility
10 SM
Flight Rules
VFR
Cloud Levels
  • Scattered at 2,800' AGL
Temperature
27°C / 81°F
Dewpoint
19°C / 66°F
Heat Index
28°C / 83°F
Humidity
62%
Altimeter
29.96" Hg
Pressure
1014.52 hPa